sensor_id;sensor_type;location;lat;lon;timestamp;temperature;humidity
34542;DHT22;20784;51.332;12.410;2024-01-30T00:01:51;6.70;99.90
34542;DHT22;20784;51.332;12.410;2024-01-30T00:04:22;6.60;99.90
34542;DHT22;20784;51.332;12.410;2024-01-30T00:06:53;6.60;99.90
34542;DHT22;20784;51.332;12.410;2024-01-30T00:09:22;6.50;99.90
34542;DHT22;20784;51.332;12.410;2024-01-30T00:11:47;6.60;99.90
34542;DHT22;20784;51.332;12.410;2024-01-30T00:14:13;6.60;99.90
34542;DHT22;20784;51.332;12.410;2024-01-30T00:16:39;6.50;99.90
34542;DHT22;20784;51.332;12.410;2024-01-30T00:19:07;6.50;99.90
34542;DHT22;20784;51.332;12.410;2024-01-30T00:21:33;6.60;99.90
34542;DHT22;20784;51.332;12.410;2024-01-30T00:23:59;6.50;99.90
34542;DHT22;20784;51.332;12.410;2024-01-30T00:26:25;6.60;99.90
34542;DHT22;20784;51.332;12.410;2024-01-30T00:28:53;6.60;99.90
34542;DHT22;20784;51.332;12.410;2024-01-30T00:31:19;6.60;99.90
34542;DHT22;20784;51.332;12.410;2024-01-30T00:33:45;6.60;99.90
34542;DHT22;20784;51.332;12.410;2024-01-30T00:36:13;6.60;99.90
34542;DHT22;20784;51.332;12.410;2024-01-30T00:38:41;6.60;99.90
34542;DHT22;20784;51.332;12.410;2024-01-30T00:41:10;6.40;99.90
34542;DHT22;20784;51.332;12.410;2024-01-30T00:43:36;6.50;99.90
34542;DHT22;20784;51.332;12.410;2024-01-30T00:46:05;6.50;99.90
34542;DHT22;20784;51.332;12.410;2024-01-30T00:48:30;6.50;99.90
34542;DHT22;20784;51.332;12.410;2024-01-30T00:50:59;6.50;99.90
34542;DHT22;20784;51.332;12.410;2024-01-30T00:53:27;6.50;99.90
34542;DHT22;20784;51.332;12.410;2024-01-30T00:55:55;6.50;99.90
34542;DHT22;20784;51.332;12.410;2024-01-30T00:58:21;6.50;99.90
34542;DHT22;20784;51.332;12.410;2024-01-30T01:00:47;6.50;99.90
34542;DHT22;20784;51.332;12.410;2024-01-30T01:03:12;6.50;99.90
34542;DHT22;20784;51.332;12.410;2024-01-30T01:05:39;6.40;99.90
34542;DHT22;20784;51.332;12.410;2024-01-30T01:08:05;6.40;99.90
34542;DHT22;20784;51.332;12.410;2024-01-30T01:10:30;6.70;99.90
34542;DHT22;20784;51.332;12.410;2024-01-30T01:13:03;6.30;99.90
34542;DHT22;20784;51.332;12.410;2024-01-30T01:15:29;6.40;99.90
34542;DHT22;20784;51.332;12.410;2024-01-30T01:17:56;6.40;99.90
34542;DHT22;20784;51.332;12.410;2024-01-30T01:20:22;6.30;99.90
34542;DHT22;20784;51.332;12.410;2024-01-30T01:22:47;6.30;99.90
34542;DHT22;20784;51.332;12.410;2024-01-30T01:25:18;6.30;99.90
34542;DHT22;20784;51.332;12.410;2024-01-30T01:27:44;6.30;99.90
34542;DHT22;20784;51.332;12.410;2024-01-30T01:30:16;6.30;99.90
34542;DHT22;20784;51.332;12.410;2024-01-30T01:32:55;6.30;99.90
34542;DHT22;20784;51.332;12.410;2024-01-30T01:35:23;6.50;99.90
34542;DHT22;20784;51.332;12.410;2024-01-30T01:38:02;6.40;99.90
34542;DHT22;20784;51.332;12.410;2024-01-30T01:40:29;6.40;99.90
34542;DHT22;20784;51.332;12.410;2024-01-30T01:42:55;6.40;99.90
34542;DHT22;20784;51.332;12.410;2024-01-30T01:45:21;6.50;99.90
34542;DHT22;20784;51.332;12.410;2024-01-30T01:47:49;6.40;99.90
34542;DHT22;20784;51.332;12.410;2024-01-30T01:50:18;6.50;99.90
34542;DHT22;20784;51.332;12.410;2024-01-30T01:52:47;6.20;99.90
34542;DHT22;20784;51.332;12.410;2024-01-30T01:55:21;6.40;99.90
34542;DHT22;20784;51.332;12.410;2024-01-30T01:57:57;6.40;99.90
34542;DHT22;20784;51.332;12.410;2024-01-30T02:00:32;6.20;99.90
34542;DHT22;20784;51.332;12.410;2024-01-30T02:02:58;6.30;99.90
34542;DHT22;20784;51.332;12.410;2024-01-30T02:05:25;6.40;99.90
34542;DHT22;20784;51.332;12.410;2024-01-30T02:07:52;6.40;99.90
34542;DHT22;20784;51.332;12.410;2024-01-30T02:10:21;6.30;99.90
34542;DHT22;20784;51.332;12.410;2024-01-30T02:12:48;6.40;99.90
34542;DHT22;20784;51.332;12.410;2024-01-30T02:15:17;6.30;99.90
34542;DHT22;20784;51.332;12.410;2024-01-30T02:17:42;6.30;99.90
34542;DHT22;20784;51.332;12.410;2024-01-30T02:20:09;6.30;99.90
34542;DHT22;20784;51.332;12.410;2024-01-30T02:22:40;6.20;99.90
34542;DHT22;20784;51.332;12.410;2024-01-30T02:25:07;6.20;99.90
34542;DHT22;20784;51.332;12.410;2024-01-30T02:27:33;6.20;99.90
34542;DHT22;20784;51.332;12.410;2024-01-30T02:29:59;6.20;99.90
34542;DHT22;20784;51.332;12.410;2024-01-30T02:32:27;6.20;99.90
34542;DHT22;20784;51.332;12.410;2024-01-30T02:34:55;6.20;99.90
34542;DHT22;20784;51.332;12.410;2024-01-30T02:37:21;6.20;99.90
34542;DHT22;20784;51.332;12.410;2024-01-30T02:39:46;6.20;99.90
34542;DHT22;20784;51.332;12.410;2024-01-30T02:42:12;6.10;99.90
34542;DHT22;20784;51.332;12.410;2024-01-30T02:44:41;6.00;99.90
34542;DHT22;20784;51.332;12.410;2024-01-30T02:47:06;6.10;99.90
34542;DHT22;20784;51.332;12.410;2024-01-30T02:49:32;6.30;99.90
34542;DHT22;20784;51.332;12.410;2024-01-30T02:51:58;6.10;99.90
34542;DHT22;20784;51.332;12.410;2024-01-30T02:54:23;6.00;99.90
34542;DHT22;20784;51.332;12.410;2024-01-30T02:56:51;6.10;99.90
34542;DHT22;20784;51.332;12.410;2024-01-30T02:59:17;6.00;99.90
34542;DHT22;20784;51.332;12.410;2024-01-30T03:01:43;6.00;99.90
34542;DHT22;20784;51.332;12.410;2024-01-30T03:04:09;6.10;99.90
34542;DHT22;20784;51.332;12.410;2024-01-30T03:06:35;6.10;99.90
34542;DHT22;20784;51.332;12.410;2024-01-30T03:09:01;6.10;99.90
34542;DHT22;20784;51.332;12.410;2024-01-30T03:11:27;6.00;99.90
34542;DHT22;20784;51.332;12.410;2024-01-30T03:13:52;6.10;99.90
34542;DHT22;20784;51.332;12.410;2024-01-30T03:16:18;6.10;99.90
34542;DHT22;20784;51.332;12.410;2024-01-30T03:18:44;6.10;99.90
34542;DHT22;20784;51.332;12.410;2024-01-30T03:21:12;6.10;99.90
34542;DHT22;20784;51.332;12.410;2024-01-30T03:23:40;6.10;99.90
34542;DHT22;20784;51.332;12.410;2024-01-30T03:26:05;6.10;99.90
34542;DHT22;20784;51.332;12.410;2024-01-30T03:28:32;6.00;99.90
34542;DHT22;20784;51.332;12.410;2024-01-30T03:30:59;6.00;99.90
34542;DHT22;20784;51.332;12.410;2024-01-30T03:33:26;6.10;99.90
34542;DHT22;20784;51.332;12.410;2024-01-30T03:35:52;6.10;99.90
34542;DHT22;20784;51.332;12.410;2024-01-30T03:38:18;6.00;99.90
34542;DHT22;20784;51.332;12.410;2024-01-30T03:40:43;6.30;99.90
34542;DHT22;20784;51.332;12.410;2024-01-30T03:43:09;6.00;99.90
34542;DHT22;20784;51.332;12.410;2024-01-30T03:45:34;6.10;99.90
34542;DHT22;20784;51.332;12.410;2024-01-30T03:48:00;6.00;99.90
34542;DHT22;20784;51.332;12.410;2024-01-30T03:50:25;6.10;99.90
34542;DHT22;20784;51.332;12.410;2024-01-30T03:52:51;6.10;99.90
34542;DHT22;20784;51.332;12.410;2024-01-30T03:55:19;6.10;99.90
34542;DHT22;20784;51.332;12.410;2024-01-30T03:57:45;6.10;99.90
34542;DHT22;20784;51.332;12.410;2024-01-30T04:00:14;6.10;99.90
34542;DHT22;20784;51.332;12.410;2024-01-30T04:02:40;6.10;99.90
34542;DHT22;20784;51.332;12.410;2024-01-30T04:05:16;6.10;99.90
34542;DHT22;20784;51.332;12.410;2024-01-30T04:07:42;6.10;99.90
34542;DHT22;20784;51.332;12.410;2024-01-30T04:10:12;6.20;99.90
34542;DHT22;20784;51.332;12.410;2024-01-30T04:12:47;6.10;99.90
34542;DHT22;20784;51.332;12.410;2024-01-30T04:15:12;6.20;99.90
34542;DHT22;20784;51.332;12.410;2024-01-30T04:17:46;6.20;99.90
34542;DHT22;20784;51.332;12.410;2024-01-30T04:20:15;6.20;99.90
34542;DHT22;20784;51.332;12.410;2024-01-30T04:22:45;6.10;99.90
34542;DHT22;20784;51.332;12.410;2024-01-30T04:25:14;6.20;99.90
34542;DHT22;20784;51.332;12.410;2024-01-30T04:27:42;6.10;99.90
34542;DHT22;20784;51.332;12.410;2024-01-30T04:30:10;6.20;99.90
34542;DHT22;20784;51.332;12.410;2024-01-30T04:32:48;6.10;99.90
34542;DHT22;20784;51.332;12.410;2024-01-30T04:35:16;6.10;99.90
34542;DHT22;20784;51.332;12.410;2024-01-30T04:37:42;6.00;99.90
34542;DHT22;20784;51.332;12.410;2024-01-30T04:40:10;6.00;99.90
34542;DHT22;20784;51.332;12.410;2024-01-30T04:42:42;6.00;99.90
34542;DHT22;20784;51.332;12.410;2024-01-30T04:45:08;6.00;99.90
34542;DHT22;20784;51.332;12.410;2024-01-30T04:47:34;6.00;99.90
34542;DHT22;20784;51.332;12.410;2024-01-30T04:49:59;6.10;99.90
34542;DHT22;20784;51.332;12.410;2024-01-30T04:52:25;6.00;99.90
34542;DHT22;20784;51.332;12.410;2024-01-30T04:54:50;6.00;99.90
34542;DHT22;20784;51.332;12.410;2024-01-30T04:57:16;6.00;99.90
34542;DHT22;20784;51.332;12.410;2024-01-30T04:59:42;6.10;99.90
34542;DHT22;20784;51.332;12.410;2024-01-30T05:02:07;6.00;99.90
34542;DHT22;20784;51.332;12.410;2024-01-30T05:04:33;6.00;99.90
34542;DHT22;20784;51.332;12.410;2024-01-30T05:07:05;6.00;99.90
34542;DHT22;20784;51.332;12.410;2024-01-30T05:09:33;6.00;99.90
34542;DHT22;20784;51.332;12.410;2024-01-30T05:12:02;5.80;99.90
34542;DHT22;20784;51.332;12.410;2024-01-30T05:14:31;5.90;99.90
34542;DHT22;20784;51.332;12.410;2024-01-30T05:16:56;5.90;99.90
34542;DHT22;20784;51.332;12.410;2024-01-30T05:19:22;6.00;99.90
34542;DHT22;20784;51.332;12.410;2024-01-30T05:21:53;5.90;99.90
34542;DHT22;20784;51.332;12.410;2024-01-30T05:24:19;5.90;99.90
34542;DHT22;20784;51.332;12.410;2024-01-30T05:26:48;5.90;99.90
34542;DHT22;20784;51.332;12.410;2024-01-30T05:29:21;5.80;99.90
34542;DHT22;20784;51.332;12.410;2024-01-30T05:31:49;5.90;99.90
34542;DHT22;20784;51.332;12.410;2024-01-30T05:34:18;6.10;99.90
34542;DHT22;20784;51.332;12.410;2024-01-30T05:36:46;5.90;99.90
34542;DHT22;20784;51.332;12.410;2024-01-30T05:39:14;5.90;99.90
34542;DHT22;20784;51.332;12.410;2024-01-30T05:41:40;5.90;99.90
34542;DHT22;20784;51.332;12.410;2024-01-30T05:44:08;5.90;99.90
34542;DHT22;20784;51.332;12.410;2024-01-30T05:46:37;6.00;99.90
34542;DHT22;20784;51.332;12.410;2024-01-30T05:49:03;5.90;99.90
34542;DHT22;20784;51.332;12.410;2024-01-30T05:51:29;5.90;99.90
34542;DHT22;20784;51.332;12.410;2024-01-30T05:53:54;5.80;99.90
34542;DHT22;20784;51.332;12.410;2024-01-30T05:56:20;6.00;99.90
34542;DHT22;20784;51.332;12.410;2024-01-30T05:58:46;5.90;99.90
34542;DHT22;20784;51.332;12.410;2024-01-30T06:01:14;5.90;99.90
34542;DHT22;20784;51.332;12.410;2024-01-30T06:03:40;5.90;99.90
34542;DHT22;20784;51.332;12.410;2024-01-30T06:06:06;6.10;99.90
34542;DHT22;20784;51.332;12.410;2024-01-30T06:08:31;6.00;99.90
34542;DHT22;20784;51.332;12.410;2024-01-30T06:10:57;5.90;99.90
34542;DHT22;20784;51.332;12.410;2024-01-30T06:13:27;5.90;99.90
34542;DHT22;20784;51.332;12.410;2024-01-30T06:16:03;5.90;99.90
34542;DHT22;20784;51.332;12.410;2024-01-30T06:18:29;5.90;99.90
34542;DHT22;20784;51.332;12.410;2024-01-30T06:20:59;5.90;99.90
34542;DHT22;20784;51.332;12.410;2024-01-30T06:23:35;5.90;99.90
34542;DHT22;20784;51.332;12.410;2024-01-30T06:26:00;5.80;99.90
34542;DHT22;20784;51.332;12.410;2024-01-30T06:28:26;5.90;99.90
34542;DHT22;20784;51.332;12.410;2024-01-30T06:30:51;5.90;99.90
34542;DHT22;20784;51.332;12.410;2024-01-30T06:33:20;5.90;99.90
34542;DHT22;20784;51.332;12.410;2024-01-30T06:35:50;5.80;99.90
34542;DHT22;20784;51.332;12.410;2024-01-30T06:38:24;5.80;99.90
34542;DHT22;20784;51.332;12.410;2024-01-30T06:40:50;5.80;99.90
34542;DHT22;20784;51.332;12.410;2024-01-30T06:43:28;5.80;99.90
34542;DHT22;20784;51.332;12.410;2024-01-30T06:46:24;6.00;99.90
34542;DHT22;20784;51.332;12.410;2024-01-30T06:48:52;5.90;99.90
34542;DHT22;20784;51.332;12.410;2024-01-30T06:51:21;5.90;99.90
34542;DHT22;20784;51.332;12.410;2024-01-30T06:54:15;5.90;99.90
34542;DHT22;20784;51.332;12.410;2024-01-30T06:57:01;5.90;99.90
34542;DHT22;20784;51.332;12.410;2024-01-30T06:59:39;6.20;99.90
34542;DHT22;20784;51.332;12.410;2024-01-30T07:02:32;6.00;99.90
34542;DHT22;20784;51.332;12.410;2024-01-30T07:05:00;6.00;99.90
34542;DHT22;20784;51.332;12.410;2024-01-30T07:07:28;5.90;99.90
34542;DHT22;20784;51.332;12.410;2024-01-30T07:10:02;5.90;99.90
34542;DHT22;20784;51.332;12.410;2024-01-30T07:13:02;5.90;99.90
34542;DHT22;20784;51.332;12.410;2024-01-30T07:15:30;6.00;99.90
34542;DHT22;20784;51.332;12.410;2024-01-30T07:18:40;6.00;99.90
34542;DHT22;20784;51.332;12.410;2024-01-30T07:21:43;6.30;99.90
34542;DHT22;20784;51.332;12.410;2024-01-30T07:24:21;6.20;99.90
34542;DHT22;20784;51.332;12.410;2024-01-30T07:26:50;6.30;99.90
34542;DHT22;20784;51.332;12.410;2024-01-30T07:29:18;6.30;99.90
34542;DHT22;20784;51.332;12.410;2024-01-30T07:31:49;6.30;99.90
34542;DHT22;20784;51.332;12.410;2024-01-30T07:34:38;6.40;99.90
34542;DHT22;20784;51.332;12.410;2024-01-30T07:37:07;6.50;99.90
34542;DHT22;20784;51.332;12.410;2024-01-30T07:42:10;6.80;99.90
34542;DHT22;20784;51.332;12.410;2024-01-30T07:44:38;7.00;99.90
34542;DHT22;20784;51.332;12.410;2024-01-30T07:47:06;7.20;99.90
34542;DHT22;20784;51.332;12.410;2024-01-30T07:49:33;7.60;99.90
34542;DHT22;20784;51.332;12.410;2024-01-30T07:52:07;7.50;99.90
34542;DHT22;20784;51.332;12.410;2024-01-30T07:54:33;7.60;99.90
34542;DHT22;20784;51.332;12.410;2024-01-30T07:57:09;7.60;99.90
34542;DHT22;20784;51.332;12.410;2024-01-30T07:59:35;7.80;99.90
34542;DHT22;20784;51.332;12.410;2024-01-30T08:02:06;8.00;99.90
34542;DHT22;20784;51.332;12.410;2024-01-30T08:04:40;8.30;99.90
34542;DHT22;20784;51.332;12.410;2024-01-30T08:07:06;8.30;99.90
34542;DHT22;20784;51.332;12.410;2024-01-30T08:09:41;8.70;99.90
34542;DHT22;20784;51.332;12.410;2024-01-30T08:12:15;9.40;99.90
34542;DHT22;20784;51.332;12.410;2024-01-30T08:14:55;10.00;99.90
34542;DHT22;20784;51.332;12.410;2024-01-30T08:17:31;10.20;99.90
34542;DHT22;20784;51.332;12.410;2024-01-30T08:20:05;10.50;99.90
34542;DHT22;20784;51.332;12.410;2024-01-30T08:22:47;10.40;99.90
34542;DHT22;20784;51.332;12.410;2024-01-30T08:25:19;10.00;99.90
34542;DHT22;20784;51.332;12.410;2024-01-30T08:27:58;9.90;99.90
34542;DHT22;20784;51.332;12.410;2024-01-30T08:30:32;9.90;99.90
34542;DHT22;20784;51.332;12.410;2024-01-30T08:33:03;9.80;99.90
34542;DHT22;20784;51.332;12.410;2024-01-30T08:35:39;9.90;99.90
34542;DHT22;20784;51.332;12.410;2024-01-30T08:38:11;9.90;99.90
34542;DHT22;20784;51.332;12.410;2024-01-30T08:43:34;10.30;99.90
34542;DHT22;20784;51.332;12.410;2024-01-30T08:46:23;10.50;99.90
34542;DHT22;20784;51.332;12.410;2024-01-30T08:48:51;11.10;99.90
34542;DHT22;20784;51.332;12.410;2024-01-30T08:51:19;11.60;99.90
34542;DHT22;20784;51.332;12.410;2024-01-30T08:53:47;11.90;99.90
34542;DHT22;20784;51.332;12.410;2024-01-30T08:56:31;11.70;99.90
34542;DHT22;20784;51.332;12.410;2024-01-30T08:59:11;11.80;99.90
34542;DHT22;20784;51.332;12.410;2024-01-30T09:01:51;11.50;99.90
34542;DHT22;20784;51.332;12.410;2024-01-30T09:04:41;11.20;99.90
34542;DHT22;20784;51.332;12.410;2024-01-30T09:07:12;11.40;99.90
34542;DHT22;20784;51.332;12.410;2024-01-30T09:09:46;11.80;99.90
34542;DHT22;20784;51.332;12.410;2024-01-30T09:12:17;11.60;99.90
34542;DHT22;20784;51.332;12.410;2024-01-30T09:14:58;11.90;99.90
34542;DHT22;20784;51.332;12.410;2024-01-30T09:17:30;12.00;99.90
34542;DHT22;20784;51.332;12.410;2024-01-30T09:20:39;11.90;99.90
34542;DHT22;20784;51.332;12.410;2024-01-30T09:23:20;12.20;99.90
34542;DHT22;20784;51.332;12.410;2024-01-30T09:29:43;11.70;99.90
34542;DHT22;20784;51.332;12.410;2024-01-30T09:35:27;11.50;99.90
34542;DHT22;20784;51.332;12.410;2024-01-30T09:38:05;11.90;99.90
34542;DHT22;20784;51.332;12.410;2024-01-30T09:40:39;12.10;99.90
34542;DHT22;20784;51.332;12.410;2024-01-30T09:43:08;12.50;99.90
34542;DHT22;20784;51.332;12.410;2024-01-30T09:45:56;12.20;99.90
34542;DHT22;20784;51.332;12.410;2024-01-30T09:48:23;11.90;99.90
34542;DHT22;20784;51.332;12.410;2024-01-30T09:51:00;11.60;99.90
34542;DHT22;20784;51.332;12.410;2024-01-30T09:53:32;11.50;99.90
34542;DHT22;20784;51.332;12.410;2024-01-30T09:56:08;11.80;99.90
34542;DHT22;20784;51.332;12.410;2024-01-30T09:58:36;12.30;99.90
34542;DHT22;20784;51.332;12.410;2024-01-30T10:01:06;12.60;99.90
34542;DHT22;20784;51.332;12.410;2024-01-30T10:03:40;12.60;99.90
34542;DHT22;20784;51.332;12.410;2024-01-30T10:06:16;12.50;99.90
34542;DHT22;20784;51.332;12.410;2024-01-30T10:08:57;12.30;99.90
34542;DHT22;20784;51.332;12.410;2024-01-30T10:11:25;12.00;99.90
34542;DHT22;20784;51.332;12.410;2024-01-30T10:13:56;12.50;99.90
34542;DHT22;20784;51.332;12.410;2024-01-30T10:16:29;12.30;99.90
34542;DHT22;20784;51.332;12.410;2024-01-30T10:18:55;12.50;99.90
34542;DHT22;20784;51.332;12.410;2024-01-30T10:21:29;12.30;99.90
34542;DHT22;20784;51.332;12.410;2024-01-30T10:24:00;12.00;99.90
34542;DHT22;20784;51.332;12.410;2024-01-30T10:26:26;11.90;99.90
34542;DHT22;20784;51.332;12.410;2024-01-30T10:29:05;11.70;99.90
34542;DHT22;20784;51.332;12.410;2024-01-30T10:31:40;11.90;99.90
34542;DHT22;20784;51.332;12.410;2024-01-30T10:34:05;11.80;99.90
34542;DHT22;20784;51.332;12.410;2024-01-30T10:36:39;11.70;99.90
34542;DHT22;20784;51.332;12.410;2024-01-30T10:39:15;11.70;99.90
34542;DHT22;20784;51.332;12.410;2024-01-30T10:41:47;11.70;99.90
34542;DHT22;20784;51.332;12.410;2024-01-30T10:44:19;11.80;99.90
34542;DHT22;20784;51.332;12.410;2024-01-30T10:46:45;11.60;99.90
34542;DHT22;20784;51.332;12.410;2024-01-30T10:49:14;11.50;99.90
34542;DHT22;20784;51.332;12.410;2024-01-30T10:51:41;11.50;99.90
34542;DHT22;20784;51.332;12.410;2024-01-30T10:54:08;11.70;99.90
34542;DHT22;20784;51.332;12.410;2024-01-30T10:56:38;11.60;99.90
34542;DHT22;20784;51.332;12.410;2024-01-30T10:59:11;11.70;99.90
34542;DHT22;20784;51.332;12.410;2024-01-30T11:01:38;11.80;99.90
34542;DHT22;20784;51.332;12.410;2024-01-30T11:04:14;12.00;99.90
34542;DHT22;20784;51.332;12.410;2024-01-30T11:06:50;12.30;99.90
34542;DHT22;20784;51.332;12.410;2024-01-30T11:09:28;12.40;99.90
34542;DHT22;20784;51.332;12.410;2024-01-30T11:11:58;12.70;99.90
34542;DHT22;20784;51.332;12.410;2024-01-30T11:14:41;12.90;99.90
34542;DHT22;20784;51.332;12.410;2024-01-30T11:17:16;12.90;99.90
34542;DHT22;20784;51.332;12.410;2024-01-30T11:19:43;12.80;99.90
34542;DHT22;20784;51.332;12.410;2024-01-30T11:22:08;12.70;99.90
34542;DHT22;20784;51.332;12.410;2024-01-30T11:24:47;12.60;99.90
34542;DHT22;20784;51.332;12.410;2024-01-30T11:27:18;12.20;99.90
34542;DHT22;20784;51.332;12.410;2024-01-30T11:29:43;12.10;99.90
34542;DHT22;20784;51.332;12.410;2024-01-30T11:32:24;12.10;99.90
34542;DHT22;20784;51.332;12.410;2024-01-30T11:34:50;12.30;99.90
34542;DHT22;20784;51.332;12.410;2024-01-30T11:37:16;12.40;99.90
34542;DHT22;20784;51.332;12.410;2024-01-30T11:39:51;12.50;99.90
34542;DHT22;20784;51.332;12.410;2024-01-30T11:42:23;12.60;99.90
34542;DHT22;20784;51.332;12.410;2024-01-30T11:45:06;12.80;99.90
34542;DHT22;20784;51.332;12.410;2024-01-30T11:47:37;12.60;99.90
34542;DHT22;20784;51.332;12.410;2024-01-30T11:50:16;12.50;99.90
34542;DHT22;20784;51.332;12.410;2024-01-30T11:52:48;12.30;99.90
34542;DHT22;20784;51.332;12.410;2024-01-30T11:55:21;12.50;99.90
34542;DHT22;20784;51.332;12.410;2024-01-30T11:57:47;13.50;99.90
34542;DHT22;20784;51.332;12.410;2024-01-30T12:00:16;14.20;99.90
34542;DHT22;20784;51.332;12.410;2024-01-30T12:02:50;15.30;99.90
34542;DHT22;20784;51.332;12.410;2024-01-30T12:05:18;16.50;99.90
34542;DHT22;20784;51.332;12.410;2024-01-30T12:07:50;16.60;99.90
34542;DHT22;20784;51.332;12.410;2024-01-30T12:10:24;16.50;99.90
34542;DHT22;20784;51.332;12.410;2024-01-30T12:13:27;16.50;99.90
34542;DHT22;20784;51.332;12.410;2024-01-30T12:16:08;16.60;99.90
34542;DHT22;20784;51.332;12.410;2024-01-30T12:18:59;16.50;99.90
34542;DHT22;20784;51.332;12.410;2024-01-30T12:21:33;16.80;99.90
34542;DHT22;20784;51.332;12.410;2024-01-30T12:24:00;16.70;99.90
34542;DHT22;20784;51.332;12.410;2024-01-30T12:26:33;16.30;99.90
34542;DHT22;20784;51.332;12.410;2024-01-30T12:29:10;15.70;99.90
34542;DHT22;20784;51.332;12.410;2024-01-30T12:31:38;15.70;99.90
34542;DHT22;20784;51.332;12.410;2024-01-30T12:34:31;15.60;99.90
34542;DHT22;20784;51.332;12.410;2024-01-30T12:37:03;15.50;99.90
34542;DHT22;20784;51.332;12.410;2024-01-30T12:39:37;15.20;99.90
34542;DHT22;20784;51.332;12.410;2024-01-30T12:42:06;15.00;99.90
34542;DHT22;20784;51.332;12.410;2024-01-30T12:44:59;14.70;99.90
34542;DHT22;20784;51.332;12.410;2024-01-30T12:47:45;14.60;99.90
34542;DHT22;20784;51.332;12.410;2024-01-30T12:50:11;14.80;99.90
34542;DHT22;20784;51.332;12.410;2024-01-30T12:52:37;14.90;99.90
34542;DHT22;20784;51.332;12.410;2024-01-30T12:55:03;14.80;99.90
34542;DHT22;20784;51.332;12.410;2024-01-30T12:57:29;14.80;99.90
34542;DHT22;20784;51.332;12.410;2024-01-30T12:59:55;14.80;99.90
34542;DHT22;20784;51.332;12.410;2024-01-30T13:02:21;14.50;99.90
34542;DHT22;20784;51.332;12.410;2024-01-30T13:04:50;14.50;99.90
34542;DHT22;20784;51.332;12.410;2024-01-30T13:07:16;14.40;99.90
34542;DHT22;20784;51.332;12.410;2024-01-30T13:09:52;14.40;99.90
34542;DHT22;20784;51.332;12.410;2024-01-30T13:12:25;14.30;99.90
34542;DHT22;20784;51.332;12.410;2024-01-30T13:14:58;14.20;99.90
34542;DHT22;20784;51.332;12.410;2024-01-30T13:17:39;14.10;99.90
34542;DHT22;20784;51.332;12.410;2024-01-30T13:20:14;14.00;99.90
34542;DHT22;20784;51.332;12.410;2024-01-30T13:22:44;13.90;99.90
34542;DHT22;20784;51.332;12.410;2024-01-30T13:25:30;13.90;99.90
34542;DHT22;20784;51.332;12.410;2024-01-30T13:28:16;13.60;99.90
34542;DHT22;20784;51.332;12.410;2024-01-30T13:30:52;13.60;99.90
34542;DHT22;20784;51.332;12.410;2024-01-30T13:33:17;13.50;99.90
34542;DHT22;20784;51.332;12.410;2024-01-30T13:35:47;13.50;99.90
34542;DHT22;20784;51.332;12.410;2024-01-30T13:38:35;13.50;99.90
34542;DHT22;20784;51.332;12.410;2024-01-30T13:41:00;13.20;99.90
34542;DHT22;20784;51.332;12.410;2024-01-30T13:43:29;13.20;99.90
34542;DHT22;20784;51.332;12.410;2024-01-30T13:45:58;13.00;99.90
34542;DHT22;20784;51.332;12.410;2024-01-30T13:48:24;12.90;99.90
34542;DHT22;20784;51.332;12.410;2024-01-30T13:50:58;12.90;99.90
34542;DHT22;20784;51.332;12.410;2024-01-30T13:53:29;13.00;99.90
34542;DHT22;20784;51.332;12.410;2024-01-30T13:55:54;12.90;99.90
34542;DHT22;20784;51.332;12.410;2024-01-30T13:58:20;12.90;99.90
34542;DHT22;20784;51.332;12.410;2024-01-30T14:00:46;12.80;99.90
34542;DHT22;20784;51.332;12.410;2024-01-30T14:03:14;12.80;99.90
34542;DHT22;20784;51.332;12.410;2024-01-30T14:05:42;12.80;99.90
34542;DHT22;20784;51.332;12.410;2024-01-30T14:08:17;12.70;99.90
34542;DHT22;20784;51.332;12.410;2024-01-30T14:10:52;12.80;99.90
34542;DHT22;20784;51.332;12.410;2024-01-30T14:13:29;12.70;99.90
34542;DHT22;20784;51.332;12.410;2024-01-30T14:18:39;12.50;99.90
34542;DHT22;20784;51.332;12.410;2024-01-30T14:21:06;12.50;99.90
34542;DHT22;20784;51.332;12.410;2024-01-30T14:23:55;12.50;99.90
34542;DHT22;20784;51.332;12.410;2024-01-30T14:26:21;12.50;99.90
34542;DHT22;20784;51.332;12.410;2024-01-30T14:28:47;12.40;99.90
34542;DHT22;20784;51.332;12.410;2024-01-30T14:31:13;12.40;99.90
34542;DHT22;20784;51.332;12.410;2024-01-30T14:33:39;12.40;99.90
34542;DHT22;20784;51.332;12.410;2024-01-30T14:36:05;12.50;99.90
34542;DHT22;20784;51.332;12.410;2024-01-30T14:38:30;12.40;99.90
34542;DHT22;20784;51.332;12.410;2024-01-30T14:40:56;12.30;99.90
34542;DHT22;20784;51.332;12.410;2024-01-30T14:43:22;12.40;99.90
34542;DHT22;20784;51.332;12.410;2024-01-30T14:45:47;12.30;99.90
34542;DHT22;20784;51.332;12.410;2024-01-30T14:48:15;12.20;99.90
34542;DHT22;20784;51.332;12.410;2024-01-30T14:50:41;12.20;99.90
34542;DHT22;20784;51.332;12.410;2024-01-30T14:53:11;12.20;99.90
34542;DHT22;20784;51.332;12.410;2024-01-30T14:55:37;12.10;99.90
34542;DHT22;20784;51.332;12.410;2024-01-30T14:58:05;12.10;99.90
34542;DHT22;20784;51.332;12.410;2024-01-30T15:00:31;12.10;99.90
34542;DHT22;20784;51.332;12.410;2024-01-30T15:02:57;12.20;99.90
34542;DHT22;20784;51.332;12.410;2024-01-30T15:05:28;12.10;99.90
34542;DHT22;20784;51.332;12.410;2024-01-30T15:07:54;12.10;99.90
34542;DHT22;20784;51.332;12.410;2024-01-30T15:10:20;12.10;99.90
34542;DHT22;20784;51.332;12.410;2024-01-30T15:12:45;12.20;99.90
34542;DHT22;20784;51.332;12.410;2024-01-30T15:15:11;12.10;99.90
34542;DHT22;20784;51.332;12.410;2024-01-30T15:17:37;12.00;99.90
34542;DHT22;20784;51.332;12.410;2024-01-30T15:20:03;12.00;99.90
34542;DHT22;20784;51.332;12.410;2024-01-30T15:22:32;11.90;99.90
34542;DHT22;20784;51.332;12.410;2024-01-30T15:24:58;11.90;99.90
34542;DHT22;20784;51.332;12.410;2024-01-30T15:27:24;11.90;99.90
34542;DHT22;20784;51.332;12.410;2024-01-30T15:29:52;11.90;99.90
34542;DHT22;20784;51.332;12.410;2024-01-30T15:32:18;11.90;99.90
34542;DHT22;20784;51.332;12.410;2024-01-30T15:34:44;11.90;99.90
34542;DHT22;20784;51.332;12.410;2024-01-30T15:37:12;11.80;99.90
34542;DHT22;20784;51.332;12.410;2024-01-30T15:39:41;11.80;99.90
34542;DHT22;20784;51.332;12.410;2024-01-30T15:42:30;11.80;99.90
34542;DHT22;20784;51.332;12.410;2024-01-30T15:44:55;11.80;99.90
34542;DHT22;20784;51.332;12.410;2024-01-30T15:47:21;11.50;99.90
34542;DHT22;20784;51.332;12.410;2024-01-30T15:49:46;11.70;99.90
34542;DHT22;20784;51.332;12.410;2024-01-30T15:52:12;11.60;99.90
34542;DHT22;20784;51.332;12.410;2024-01-30T15:54:41;11.60;99.90
34542;DHT22;20784;51.332;12.410;2024-01-30T15:57:07;11.80;99.90
34542;DHT22;20784;51.332;12.410;2024-01-30T15:59:32;11.50;99.90
34542;DHT22;20784;51.332;12.410;2024-01-30T16:02:01;11.50;99.90